FFL693 K1G0-KFDK
Flight info
| Callsign | FFL693 |
|---|---|
| Flight time | N/A |
| Altitude | 25000 |
| Route | KPKB |
| Aircraft | PC12/L-SDFGRWY/S |
Departure
| Time | 2026-04-26 14:51 |
|---|---|
| Airport | Wood County Airport (K1G0) |
Arrival
| Time | N/A |
|---|---|
| Airport | Frederick Municipal Airport (KFDK) |
| Time | Latitude | Longitude | Altitude | Speed | Heading |
|---|---|---|---|---|---|
| 2026-04-26 14:42 | 41.38621 | -83.63591 | 687 ft | 0 kts | 180° |
| 2026-04-26 14:42 | 41.38627 | -83.63625 | 688 ft | 0 kts | 91° |
| 2026-04-26 14:48 | 41.38627 | -83.63621 | 687 ft | 3 kts | 91° |
| 2026-04-26 14:48 | 41.38664 | -83.63599 | 687 ft | 8 kts | 332° |
| 2026-04-26 14:48 | 41.38683 | -83.63614 | 687 ft | 9 kts | 328° |
| 2026-04-26 14:49 | 41.38748 | -83.63614 | 687 ft | 8 kts | 58° |
| 2026-04-26 14:49 | 41.38804 | -83.63516 | 687 ft | 16 kts | 27° |
| 2026-04-26 14:49 | 41.38927 | -83.63511 | 687 ft | 16 kts | 1° |
| 2026-04-26 14:49 | 41.39018 | -83.63514 | 687 ft | 19 kts | 0° |
| 2026-04-26 14:50 | 41.39124 | -83.63517 | 687 ft | 13 kts | 357° |
| 2026-04-26 14:50 | 41.39175 | -83.63509 | 688 ft | 7 kts | 51° |
| 2026-04-26 14:50 | 41.39179 | -83.63353 | 687 ft | 38 kts | 90° |
| 2026-04-26 14:50 | 41.39173 | -83.62733 | 696 ft | 91 kts | 86° |
| 2026-04-26 14:51 | 41.39184 | -83.61723 | 850 ft | 129 kts | 88° |
| 2026-04-26 14:51 | 41.39149 | -83.60440 | 1379 ft | 140 kts | 91° |
| 2026-04-26 14:51 | 41.39099 | -83.59153 | 2126 ft | 139 kts | 91° |
| 2026-04-26 14:51 | 41.39049 | -83.57886 | 2836 ft | 138 kts | 91° |
| 2026-04-26 14:52 | 41.39003 | -83.56600 | 3511 ft | 140 kts | 91° |
| 2026-04-26 14:52 | 41.38970 | -83.55287 | 4152 ft | 143 kts | 90° |
| 2026-04-26 14:52 | 41.38933 | -83.53948 | 4790 ft | 147 kts | 91° |
| 2026-04-26 14:52 | 41.38898 | -83.52573 | 5410 ft | 150 kts | 90° |
| 2026-04-26 14:53 | 41.38860 | -83.51178 | 6046 ft | 152 kts | 90° |
| 2026-04-26 14:53 | 41.38819 | -83.49757 | 6703 ft | 155 kts | 90° |
| 2026-04-26 14:53 | 41.38774 | -83.48312 | 7370 ft | 158 kts | 90° |
| 2026-04-26 14:53 | 41.38721 | -83.46836 | 8065 ft | 161 kts | 90° |
| 2026-04-26 14:54 | 41.38659 | -83.45330 | 8677 ft | 165 kts | 91° |
| 2026-04-26 14:54 | 41.38591 | -83.43786 | 9302 ft | 169 kts | 90° |
| 2026-04-26 14:54 | 41.38441 | -83.42222 | 9913 ft | 176 kts | 108° |
| 2026-04-26 14:54 | 41.37628 | -83.41004 | 10514 ft | 183 kts | 148° |
| 2026-04-26 14:55 | 41.36506 | -83.40181 | 11095 ft | 186 kts | 146° |
| 2026-04-26 14:55 | 41.35445 | -83.39179 | 11690 ft | 188 kts | 141° |
| 2026-04-26 14:55 | 41.34405 | -83.38118 | 12304 ft | 190 kts | 141° |
| 2026-04-26 14:55 | 41.33347 | -83.37045 | 12903 ft | 192 kts | 142° |
| 2026-04-26 14:56 | 41.32275 | -83.35967 | 13521 ft | 194 kts | 142° |
| 2026-04-26 14:56 | 41.31192 | -83.34874 | 14116 ft | 197 kts | 143° |
| 2026-04-26 14:56 | 41.30095 | -83.33771 | 14657 ft | 199 kts | 143° |
| 2026-04-26 14:56 | 41.28991 | -83.32659 | 15249 ft | 199 kts | 143° |
| 2026-04-26 14:57 | 41.27881 | -83.31540 | 15841 ft | 201 kts | 144° |
| 2026-04-26 14:57 | 41.26765 | -83.30416 | 16449 ft | 202 kts | 144° |
| 2026-04-26 14:57 | 41.25640 | -83.29286 | 17054 ft | 204 kts | 145° |
| 2026-04-26 14:57 | 41.24509 | -83.28149 | 17670 ft | 205 kts | 145° |
| 2026-04-26 14:58 | 41.23366 | -83.27000 | 18297 ft | 206 kts | 145° |
| 2026-04-26 14:58 | 41.22218 | -83.25847 | 18851 ft | 208 kts | 145° |
| 2026-04-26 14:58 | 41.21454 | -83.25080 | 19201 ft | 209 kts | 145° |
| 2026-04-26 14:58 | 41.20290 | -83.23912 | 19731 ft | 210 kts | 145° |
| 2026-04-26 14:59 | 41.19116 | -83.22734 | 20272 ft | 212 kts | 145° |
| 2026-04-26 14:59 | 41.17934 | -83.21550 | 20825 ft | 214 kts | 145° |
| 2026-04-26 14:59 | 41.16743 | -83.20355 | 21373 ft | 216 kts | 145° |
| 2026-04-26 14:59 | 41.15950 | -83.19560 | 21729 ft | 217 kts | 144° |
| 2026-04-26 15:00 | 41.14330 | -83.17938 | 22440 ft | 219 kts | 144° |
| 2026-04-26 15:00 | 41.13109 | -83.16717 | 22962 ft | 221 kts | 144° |
| 2026-04-26 15:00 | 41.11878 | -83.15484 | 23474 ft | 223 kts | 144° |
| 2026-04-26 15:00 | 41.10636 | -83.14242 | 23972 ft | 224 kts | 144° |
| 2026-04-26 15:01 | 41.09386 | -83.12994 | 24431 ft | 226 kts | 144° |
| 2026-04-26 15:01 | 41.08119 | -83.11728 | 24834 ft | 231 kts | 144° |
| 2026-04-26 15:01 | 41.06789 | -83.10402 | 24968 ft | 249 kts | 144° |
| 2026-04-26 15:01 | 41.05350 | -83.08970 | 24976 ft | 268 kts | 144° |
| 2026-04-26 15:02 | 41.03822 | -83.07447 | 24979 ft | 281 kts | 144° |
| 2026-04-26 15:02 | 41.02237 | -83.05865 | 24977 ft | 290 kts | 144° |
| 2026-04-26 15:02 | 41.00615 | -83.04250 | 24979 ft | 292 kts | 144° |
| 2026-04-26 15:02 | 40.98990 | -83.02631 | 24975 ft | 293 kts | 144° |
| 2026-04-26 15:03 | 40.97361 | -83.01010 | 24974 ft | 294 kts | 144° |
| 2026-04-26 15:03 | 40.95729 | -82.99388 | 24978 ft | 294 kts | 144° |
| 2026-04-26 15:03 | 40.94095 | -82.97765 | 24983 ft | 293 kts | 144° |
| 2026-04-26 15:03 | 40.92475 | -82.96156 | 25107 ft | 290 kts | 144° |
| 2026-04-26 15:04 | 40.91026 | -82.94335 | 25168 ft | 290 kts | 124° |
| 2026-04-26 15:04 | 40.90256 | -82.91884 | 25173 ft | 291 kts | 102° |
| 2026-04-26 15:04 | 40.89902 | -82.89248 | 25181 ft | 292 kts | 99° |
| 2026-04-26 15:04 | 40.89458 | -82.86626 | 25184 ft | 293 kts | 105° |
| 2026-04-26 15:05 | 40.88814 | -82.84069 | 25190 ft | 294 kts | 109° |
| 2026-04-26 15:05 | 40.88358 | -82.82382 | 25188 ft | 294 kts | 108° |
| 2026-04-26 15:05 | 40.87517 | -82.78939 | 25189 ft | 295 kts | 106° |
| 2026-04-26 15:05 | 40.86917 | -82.76352 | 25189 ft | 295 kts | 107° |
| 2026-04-26 15:06 | 40.86298 | -82.73773 | 25187 ft | 295 kts | 107° |
| 2026-04-26 15:06 | 40.85670 | -82.71194 | 25186 ft | 295 kts | 107° |
| 2026-04-26 15:06 | 40.85054 | -82.68651 | 25188 ft | 295 kts | 107° |
| 2026-04-26 15:06 | 40.84433 | -82.66074 | 25186 ft | 294 kts | 107° |
| 2026-04-26 15:07 | 40.83186 | -82.60922 | 25185 ft | 294 kts | 107° |
| 2026-04-26 15:07 | 40.82562 | -82.58351 | 25184 ft | 294 kts | 107° |
| 2026-04-26 15:07 | 40.81939 | -82.55780 | 25185 ft | 294 kts | 107° |
| 2026-04-26 15:08 | 40.81315 | -82.53211 | 25185 ft | 294 kts | 107° |
| 2026-04-26 15:08 | 40.80690 | -82.50642 | 25185 ft | 294 kts | 107° |
| 2026-04-26 15:08 | 40.80064 | -82.48074 | 25187 ft | 294 kts | 107° |
| 2026-04-26 15:08 | 40.79438 | -82.45507 | 25187 ft | 294 kts | 107° |
| 2026-04-26 15:09 | 40.78812 | -82.42941 | 25185 ft | 294 kts | 107° |
| 2026-04-26 15:09 | 40.78186 | -82.40379 | 25183 ft | 294 kts | 107° |
| 2026-04-26 15:09 | 40.77559 | -82.37814 | 25186 ft | 294 kts | 107° |
| 2026-04-26 15:09 | 40.76931 | -82.35251 | 25187 ft | 294 kts | 107° |
| 2026-04-26 15:10 | 40.76303 | -82.32688 | 25186 ft | 294 kts | 107° |
| 2026-04-26 15:10 | 40.75887 | -82.30993 | 25187 ft | 293 kts | 107° |
| 2026-04-26 15:10 | 40.75046 | -82.27569 | 25189 ft | 293 kts | 107° |
| 2026-04-26 15:10 | 40.74417 | -82.25011 | 25187 ft | 293 kts | 107° |
| 2026-04-26 15:11 | 40.73787 | -82.22454 | 25188 ft | 293 kts | 107° |
| 2026-04-26 15:11 | 40.73157 | -82.19897 | 25189 ft | 293 kts | 107° |
| 2026-04-26 15:11 | 40.72526 | -82.17338 | 25189 ft | 293 kts | 107° |